createdAt,value
2018-12-07T00:01:33.024Z,7.60
2018-12-07T00:04:01.958Z,9.50
2018-12-07T00:06:30.914Z,11.53
2018-12-07T00:08:59.764Z,8.30
2018-12-07T00:11:28.706Z,6.93
2018-12-07T00:13:57.622Z,9.30
2018-12-07T00:16:26.480Z,13.90
2018-12-07T00:18:55.565Z,46.67
2018-12-07T00:21:24.478Z,10.43
2018-12-07T00:23:54.123Z,15.23
2018-12-07T00:26:23.340Z,14.83
2018-12-07T00:28:53.062Z,14.20
2018-12-07T00:31:21.926Z,7.10
2018-12-07T00:33:50.791Z,8.30
2018-12-07T00:36:19.720Z,4.13
2018-12-07T00:38:48.582Z,6.33
2018-12-07T00:41:17.437Z,6.07
2018-12-07T00:43:46.343Z,6.50
2018-12-07T00:46:15.998Z,7.80
2018-12-07T00:48:44.885Z,8.80
2018-12-07T00:51:13.794Z,5.53
2018-12-07T00:53:42.646Z,7.70
2018-12-07T00:56:11.501Z,6.73
2018-12-07T00:58:41.253Z,8.83
2018-12-07T01:01:10.099Z,7.73
2018-12-07T01:03:38.962Z,10.27
2018-12-07T01:06:07.872Z,4.63
2018-12-07T01:08:36.719Z,5.23
2018-12-07T01:11:05.670Z,4.23
2018-12-07T01:13:34.732Z,3.87
2018-12-07T01:16:03.645Z,5.13
2018-12-07T01:18:32.490Z,1.47
2018-12-07T01:21:01.404Z,3.07
2018-12-07T01:23:30.270Z,5.80
2018-12-07T01:25:59.155Z,3.23
2018-12-07T01:28:28.062Z,3.13
2018-12-07T01:30:56.905Z,2.47
2018-12-07T01:33:25.754Z,4.50
2018-12-07T01:35:54.674Z,2.80
2018-12-07T01:38:24.466Z,6.40
2018-12-07T01:40:53.354Z,8.10
2018-12-07T01:43:22.295Z,3.33
2018-12-07T01:45:51.143Z,5.37
2018-12-07T01:48:20.002Z,10.80
2018-12-07T01:50:49.169Z,18.87
2018-12-07T01:53:18.058Z,286.60
2018-12-07T01:55:46.902Z,405.53
2018-12-07T01:58:15.834Z,370.93
2018-12-07T02:00:44.726Z,152.17
2018-12-07T02:03:13.574Z,271.27
2018-12-07T02:05:42.537Z,115.53
2018-12-07T02:08:11.516Z,60.00
2018-12-07T02:10:40.370Z,241.93
2018-12-07T02:13:09.293Z,131.33
2018-12-07T02:15:38.213Z,186.80
2018-12-07T02:18:07.075Z,14.23
2018-12-07T02:20:35.994Z,10.93
2018-12-07T02:23:04.909Z,9.80
2018-12-07T02:25:33.755Z,11.63
2018-12-07T02:28:02.695Z,13.33
2018-12-07T02:30:31.946Z,21.00
2018-12-07T02:33:00.806Z,23.47
2018-12-07T02:35:29.738Z,10.70
2018-12-07T02:37:59.643Z,15.07
2018-12-07T02:40:28.495Z,23.90
2018-12-07T02:42:58.458Z,28.83
2018-12-07T02:45:27.316Z,198.20
2018-12-07T02:47:56.165Z,78.20
2018-12-07T02:50:25.089Z,35.93
2018-12-07T02:52:53.961Z,35.50
2018-12-07T02:55:22.831Z,83.37
2018-12-07T02:57:51.766Z,70.60
2018-12-07T03:00:20.876Z,569.87
2018-12-07T03:02:49.732Z,580.70
2018-12-07T03:05:18.966Z,31.40
2018-12-07T03:07:47.816Z,520.43
2018-12-07T03:10:16.686Z,48.33
2018-12-07T03:12:46.543Z,546.17
2018-12-07T03:18:01.726Z,478.07
2018-12-07T03:20:30.591Z,41.83
2018-12-07T03:22:59.475Z,103.00
2018-12-07T03:25:28.447Z,1258.77
2018-12-07T03:27:57.376Z,1121.13
2018-12-07T03:30:26.274Z,181.87
2018-12-07T03:32:55.239Z,418.40
2018-12-07T03:35:24.151Z,996.30
2018-12-07T03:37:53.030Z,675.03
2018-12-07T03:40:22.018Z,55.20
2018-12-07T03:42:50.902Z,243.13
2018-12-07T03:45:19.795Z,253.63
2018-12-07T03:47:49.838Z,1149.37
2018-12-07T03:50:18.750Z,274.00
2018-12-07T03:52:47.640Z,109.67
2018-12-07T03:55:16.594Z,78.53
2018-12-07T04:05:01.864Z,43.30
2018-12-07T04:07:30.762Z,35.33
2018-12-07T04:09:59.654Z,243.13
2018-12-07T04:12:28.622Z,52.37
2018-12-07T04:14:58.676Z,37.10
2018-12-07T04:17:27.551Z,49.67
2018-12-07T04:19:56.806Z,41.00
2018-12-07T04:22:26.464Z,41.80
2018-12-07T04:24:55.347Z,55.57
2018-12-07T04:27:24.375Z,42.77
2018-12-07T04:29:57.663Z,30.90
2018-12-07T04:32:27.938Z,41.53
2018-12-07T04:34:57.287Z,33.20
2018-12-07T04:37:26.948Z,27.57
2018-12-07T04:39:56.833Z,40.43
2018-12-07T04:42:25.735Z,40.27
2018-12-07T04:44:54.727Z,26.83
2018-12-07T04:47:23.615Z,43.83
2018-12-07T04:49:52.503Z,39.87
2018-12-07T04:52:21.500Z,37.57
2018-12-07T04:54:50.390Z,37.37
2018-12-07T04:57:19.299Z,34.50
2018-12-07T04:59:48.272Z,92.43
2018-12-07T05:02:17.369Z,44.13
2018-12-07T05:04:46.391Z,46.27
2018-12-07T05:07:15.386Z,44.33
2018-12-07T05:09:44.293Z,39.03
2018-12-07T05:12:13.191Z,45.73
2018-12-07T05:14:42.297Z,49.80
2018-12-07T05:17:11.245Z,32.63
2018-12-07T05:19:40.148Z,32.40
2018-12-07T05:22:10.296Z,31.93
2018-12-07T05:24:39.183Z,39.67
2018-12-07T05:27:08.059Z,36.13
2018-12-07T05:29:37.030Z,44.93
2018-12-07T05:32:05.943Z,34.27
2018-12-07T05:34:34.840Z,36.83
2018-12-07T05:37:03.798Z,40.90
2018-12-07T05:39:32.714Z,43.17
2018-12-07T05:42:01.658Z,45.53
2018-12-07T05:44:30.612Z,30.60
2018-12-07T05:46:59.480Z,39.17
2018-12-07T05:49:28.394Z,37.20
2018-12-07T05:51:57.350Z,44.40
2018-12-07T05:54:27.003Z,47.60
2018-12-07T05:56:55.902Z,47.93
2018-12-07T05:59:24.850Z,40.20
2018-12-07T06:01:53.735Z,43.40
2018-12-07T06:04:22.645Z,39.60
2018-12-07T06:06:52.397Z,40.43
2018-12-07T06:09:21.293Z,35.77
2018-12-07T06:11:50.187Z,463.50
2018-12-07T06:14:19.326Z,685.30
2018-12-07T06:16:48.233Z,74.47
2018-12-07T06:19:17.118Z,97.83
2018-12-07T06:21:46.083Z,186.20
2018-12-07T06:24:15.061Z,158.43
2018-12-07T06:26:43.950Z,56.90
2018-12-07T06:29:12.902Z,33.67
2018-12-07T06:31:41.998Z,38.00
2018-12-07T06:34:10.887Z,49.07
2018-12-07T06:36:39.840Z,48.27
2018-12-07T06:39:09.726Z,35.73
2018-12-07T06:41:38.666Z,52.90
2018-12-07T06:44:07.659Z,50.60
2018-12-07T06:46:36.543Z,109.40
2018-12-07T06:49:09.264Z,68.63
2018-12-07T06:51:38.178Z,57.23
2018-12-07T06:54:07.076Z,240.40
2018-12-07T06:56:36.030Z,52.60
2018-12-07T06:59:06.082Z,51.63
2018-12-07T07:01:35.091Z,35.57
2018-12-07T07:04:04.066Z,40.63
2018-12-07T07:06:32.990Z,35.57
2018-12-07T07:09:14.772Z,49.97
2018-12-07T07:11:43.666Z,171.53
2018-12-07T07:14:12.590Z,134.30
2018-12-07T07:16:41.570Z,204.17
2018-12-07T07:19:10.500Z,763.03
2018-12-07T07:21:39.374Z,47.87
2018-12-07T07:24:08.334Z,153.73
2018-12-07T07:26:37.290Z,45.13
2018-12-07T07:29:06.178Z,54.43
2018-12-07T07:31:35.151Z,43.60
2018-12-07T07:34:04.103Z,38.07
2018-12-07T07:36:33.069Z,41.67
2018-12-07T07:39:02.031Z,43.53
2018-12-07T07:41:31.503Z,28.97
2018-12-07T07:44:00.431Z,48.10
2018-12-07T07:46:29.378Z,38.07
2018-12-07T07:48:59.471Z,37.33
2018-12-07T07:51:28.416Z,33.53
2018-12-07T07:53:57.367Z,39.10
2018-12-07T07:56:26.263Z,39.40
2018-12-07T07:58:56.021Z,43.17
2018-12-07T08:01:25.937Z,41.53
2018-12-07T08:03:54.943Z,44.17
2018-12-07T08:06:23.862Z,41.80
2018-12-07T08:08:52.868Z,33.03
2018-12-07T08:11:22.339Z,46.13
2018-12-07T08:13:51.235Z,38.90
2018-12-07T08:16:20.194Z,42.43
2018-12-07T08:18:50.164Z,31.20
2018-12-07T08:21:19.157Z,45.90
2018-12-07T08:23:48.125Z,46.17
2018-12-07T08:26:17.024Z,35.17
2018-12-07T08:28:46.792Z,45.10
2018-12-07T08:31:16.846Z,35.40
2018-12-07T08:33:45.755Z,35.07
2018-12-07T08:36:14.646Z,46.37
2018-12-07T08:38:43.590Z,42.13
2018-12-07T08:41:12.658Z,38.00
2018-12-07T08:43:41.561Z,50.63
2018-12-07T08:46:10.525Z,42.17
2018-12-07T08:48:39.410Z,34.13
2018-12-07T08:51:08.347Z,41.20
2018-12-07T08:53:37.320Z,37.70
2018-12-07T08:56:06.246Z,45.83
2018-12-07T08:58:36.161Z,45.97
2018-12-07T09:01:05.222Z,43.17
2018-12-07T09:03:34.155Z,35.53
2018-12-07T09:06:03.103Z,42.47
2018-12-07T09:08:32.164Z,32.27
2018-12-07T09:11:01.234Z,34.57
2018-12-07T09:13:30.122Z,39.53
2018-12-07T09:16:00.666Z,45.17
2018-12-07T09:18:29.570Z,38.23
2018-12-07T09:20:58.505Z,37.10
2018-12-07T09:23:27.454Z,39.50
2018-12-07T09:25:56.395Z,27.05
2018-12-07T09:28:25.303Z,33.25
2018-12-07T09:30:54.342Z,32.10
2018-12-07T09:33:23.316Z,36.73
2018-12-07T09:35:52.224Z,28.50
2018-12-07T09:38:21.175Z,34.00
2018-12-07T09:40:50.074Z,35.00
2018-12-07T09:43:18.960Z,33.83
2018-12-07T09:45:47.966Z,29.87
2018-12-07T09:48:16.859Z,27.55
2018-12-07T09:50:45.739Z,34.00
2018-12-07T09:53:15.896Z,36.17
2018-12-07T09:55:44.832Z,29.48
2018-12-07T09:58:13.991Z,32.88
2018-12-07T10:00:42.951Z,24.98
2018-12-07T10:03:11.835Z,27.15
2018-12-07T10:05:40.740Z,23.18
2018-12-07T10:08:09.699Z,26.68
2018-12-07T10:10:38.623Z,33.65
2018-12-07T10:13:08.145Z,30.25
2018-12-07T10:15:37.434Z,21.57
2018-12-07T10:18:06.326Z,26.85
2018-12-07T10:20:35.237Z,21.87
2018-12-07T10:23:04.198Z,23.75
2018-12-07T10:25:33.090Z,28.75
2018-12-07T10:28:02.280Z,28.83
2018-12-07T10:30:31.370Z,27.10
2018-12-07T10:33:00.402Z,26.07
2018-12-07T10:35:29.582Z,28.15
2018-12-07T10:37:58.636Z,31.40
2018-12-07T10:40:27.574Z,27.55
2018-12-07T10:42:56.538Z,15.08
2018-12-07T10:45:25.528Z,20.10
2018-12-07T10:47:54.502Z,21.12
2018-12-07T10:50:24.386Z,26.60
2018-12-07T10:52:53.351Z,23.95
2018-12-07T10:55:22.299Z,30.82
2018-12-07T10:57:51.202Z,15.85
2018-12-07T11:00:29.434Z,18.55
2018-12-07T11:03:04.976Z,13.38
2018-12-07T11:05:40.507Z,22.32
2018-12-07T11:08:17.850Z,21.20
2018-12-07T11:10:52.586Z,20.90
2018-12-07T11:13:30.113Z,25.72
2018-12-07T11:16:08.547Z,15.90
2018-12-07T11:18:45.907Z,25.40
2018-12-07T11:21:23.517Z,25.15
2018-12-07T11:26:02.526Z,20.85
2018-12-07T11:28:38.578Z,18.10
2018-12-07T11:31:14.018Z,17.15
2018-12-07T11:33:50.670Z,29.50
2018-12-07T11:36:19.603Z,21.75
2018-12-07T11:38:48.511Z,20.92
2018-12-07T11:41:17.503Z,23.77
2018-12-07T11:43:46.443Z,21.45
2018-12-07T11:46:15.346Z,25.57
2018-12-07T11:48:44.335Z,29.30
2018-12-07T11:51:13.410Z,25.90
2018-12-07T11:53:42.507Z,23.57
2018-12-07T11:56:11.520Z,24.70
2018-12-07T11:58:40.479Z,27.60
2018-12-07T12:01:09.424Z,31.57
2018-12-07T12:03:38.430Z,30.95
2018-12-07T12:06:07.362Z,22.17
2018-12-07T12:08:36.300Z,21.80
2018-12-07T12:11:05.267Z,26.17
2018-12-07T12:13:34.210Z,26.07
2018-12-07T12:16:03.143Z,23.33
2018-12-07T12:18:32.147Z,15.30
2018-12-07T12:21:01.152Z,28.92
2018-12-07T12:23:30.059Z,26.73
2018-12-07T12:25:59.015Z,21.97
2018-12-07T12:28:27.934Z,14.47
2018-12-07T12:30:56.852Z,23.13
2018-12-07T12:33:25.959Z,14.45
2018-12-07T12:35:54.923Z,25.17
2018-12-07T12:38:23.832Z,18.83
2018-12-07T12:40:52.795Z,24.60
2018-12-07T12:43:21.710Z,21.57
2018-12-07T12:45:50.730Z,13.40
2018-12-07T12:48:19.730Z,22.13
2018-12-07T12:50:48.731Z,20.60
2018-12-07T12:53:17.679Z,16.00
2018-12-07T12:55:46.678Z,22.42
2018-12-07T12:58:15.727Z,21.37
2018-12-07T13:00:44.639Z,21.15
2018-12-07T13:03:14.568Z,23.83
2018-12-07T13:05:43.787Z,21.82
2018-12-07T13:08:12.844Z,20.63
2018-12-07T13:10:41.857Z,26.20
2018-12-07T13:13:10.751Z,28.87
2018-12-07T13:15:39.659Z,20.93
2018-12-07T13:18:08.939Z,17.43
2018-12-07T13:20:37.877Z,20.50
2018-12-07T13:23:06.798Z,27.42
2018-12-07T13:25:35.853Z,25.23
2018-12-07T13:28:04.959Z,23.10
2018-12-07T13:30:34.315Z,28.83
2018-12-07T13:33:03.399Z,21.70
2018-12-07T13:35:32.288Z,28.80
2018-12-07T13:38:01.230Z,24.93
2018-12-07T13:40:30.300Z,24.60
2018-12-07T13:42:59.301Z,24.77
2018-12-07T13:45:28.537Z,27.37
2018-12-07T13:47:57.795Z,21.00
2018-12-07T13:50:35.245Z,20.10
2018-12-07T13:53:04.239Z,22.45
2018-12-07T13:55:33.144Z,29.40
2018-12-07T13:58:02.113Z,25.57
2018-12-07T14:00:31.227Z,27.53
2018-12-07T14:03:00.441Z,28.13
2018-12-07T14:05:32.374Z,29.80
2018-12-07T14:08:00.386Z,20.90
2018-12-07T14:10:29.310Z,21.27
2018-12-07T14:12:58.225Z,25.67
2018-12-07T14:15:27.283Z,25.17
2018-12-07T14:17:56.210Z,33.57
2018-12-07T14:20:26.358Z,21.70
2018-12-07T14:22:55.583Z,25.07
2018-12-07T14:25:24.593Z,22.67
2018-12-07T14:27:53.610Z,30.77
2018-12-07T14:30:22.849Z,24.90
2018-12-07T14:32:51.775Z,29.17
2018-12-07T14:35:20.724Z,30.13
2018-12-07T14:37:49.763Z,19.93
2018-12-07T14:40:18.736Z,26.60
2018-12-07T14:42:47.769Z,17.40
2018-12-07T14:45:16.858Z,27.17
2018-12-07T14:47:45.830Z,25.40
2018-12-07T14:50:15.834Z,12.93
2018-12-07T14:52:45.194Z,19.30
2018-12-07T14:55:15.589Z,23.20
2018-12-07T14:57:44.632Z,18.53
2018-12-07T15:00:13.699Z,27.57
2018-12-07T15:02:42.667Z,23.60
2018-12-07T15:05:11.645Z,23.20
2018-12-07T15:07:40.514Z,24.83
2018-12-07T15:10:09.541Z,26.30
2018-12-07T15:12:38.558Z,26.23
2018-12-07T15:15:07.537Z,24.97
2018-12-07T15:17:36.550Z,17.60
2018-12-07T15:20:06.259Z,20.70
2018-12-07T15:22:35.227Z,25.40
2018-12-07T15:25:04.555Z,30.07
2018-12-07T15:27:33.733Z,20.17
2018-12-07T15:30:02.835Z,22.63
2018-12-07T15:32:31.798Z,27.73
2018-12-07T15:35:00.907Z,19.33
2018-12-07T15:37:29.840Z,24.43
2018-12-07T15:39:58.900Z,22.60
2018-12-07T15:42:28.113Z,20.50
2018-12-07T15:44:57.110Z,27.13
2018-12-07T15:47:26.316Z,25.77
2018-12-07T15:49:55.449Z,17.43
2018-12-07T15:52:24.504Z,24.27
2018-12-07T15:54:53.582Z,27.30
2018-12-07T15:57:22.569Z,29.97
2018-12-07T15:59:51.704Z,31.70
2018-12-07T16:02:20.814Z,25.63
2018-12-07T16:04:50.026Z,32.20
2018-12-07T16:07:19.110Z,28.23
2018-12-07T16:09:48.042Z,26.73
2018-12-07T16:12:17.126Z,23.47
2018-12-07T16:14:46.484Z,34.93
2018-12-07T16:17:15.391Z,30.17
2018-12-07T16:19:44.327Z,30.00
2018-12-07T16:22:13.327Z,29.50
2018-12-07T16:24:42.241Z,26.63
2018-12-07T16:27:11.258Z,26.73
2018-12-07T16:29:41.408Z,34.80
2018-12-07T16:32:10.535Z,23.73
2018-12-07T16:34:39.590Z,29.37
2018-12-07T16:37:08.677Z,42.37
2018-12-07T16:39:37.745Z,38.60
2018-12-07T16:42:06.714Z,29.53
2018-12-07T16:44:36.005Z,30.13
2018-12-07T16:47:04.999Z,23.23
2018-12-07T16:49:34.391Z,31.47
2018-12-07T16:52:03.474Z,36.57
2018-12-07T16:54:32.553Z,27.80
2018-12-07T16:57:01.596Z,26.87
2018-12-07T16:59:30.657Z,28.87
2018-12-07T17:01:59.781Z,37.93
2018-12-07T17:04:28.794Z,53.37
2018-12-07T17:06:57.972Z,40.27
2018-12-07T17:09:26.913Z,30.47
2018-12-07T17:11:55.975Z,30.33
2018-12-07T17:14:25.069Z,40.17
2018-12-07T17:16:54.275Z,31.53
2018-12-07T17:19:23.403Z,30.87
2018-12-07T17:21:52.377Z,32.10
2018-12-07T17:24:21.253Z,26.93
2018-12-07T17:26:50.955Z,31.93
2018-12-07T17:29:20.235Z,30.90
2018-12-07T17:31:49.461Z,23.27
2018-12-07T17:34:18.640Z,36.93
2018-12-07T17:36:47.662Z,39.43
2018-12-07T17:39:16.534Z,30.27
2018-12-07T17:41:45.689Z,29.20
2018-12-07T17:44:15.602Z,35.90
2018-12-07T17:46:45.165Z,41.73
2018-12-07T17:49:26.355Z,39.63
2018-12-07T17:51:55.425Z,31.27
2018-12-07T17:54:24.540Z,29.87
2018-12-07T17:56:53.694Z,33.53
2018-12-07T17:59:22.870Z,35.40
2018-12-07T18:01:51.795Z,24.97
2018-12-07T18:04:20.707Z,38.20
2018-12-07T18:06:49.714Z,30.90
2018-12-07T18:09:18.780Z,45.67
2018-12-07T18:11:47.848Z,46.67
2018-12-07T18:14:17.118Z,30.23
2018-12-07T18:16:46.223Z,27.43
2018-12-07T18:19:15.308Z,38.20
2018-12-07T18:21:44.397Z,33.13
2018-12-07T18:24:13.409Z,43.07
2018-12-07T18:26:42.415Z,38.67
2018-12-07T18:29:11.382Z,31.33
2018-12-07T18:31:40.360Z,30.33
2018-12-07T18:34:09.589Z,34.23
2018-12-07T18:36:38.745Z,31.07
2018-12-07T18:39:08.458Z,28.93
2018-12-07T18:41:37.461Z,46.10
2018-12-07T18:44:06.486Z,45.73
2018-12-07T18:46:35.349Z,31.30
2018-12-07T18:49:04.291Z,32.37
2018-12-07T18:51:33.328Z,36.33
2018-12-07T18:54:02.361Z,31.70
2018-12-07T18:56:31.305Z,34.07
2018-12-07T18:59:00.628Z,39.93
2018-12-07T19:01:29.837Z,37.83
2018-12-07T19:03:58.780Z,35.97
2018-12-07T19:06:27.815Z,37.90
2018-12-07T19:08:56.794Z,40.60
2018-12-07T19:11:25.904Z,33.50
2018-12-07T19:13:54.904Z,37.10
2018-12-07T19:16:24.101Z,28.07
2018-12-07T19:18:53.193Z,32.80
2018-12-07T19:21:22.458Z,42.33
2018-12-07T19:23:51.479Z,35.33
2018-12-07T19:26:20.574Z,37.37
2018-12-07T19:28:49.619Z,37.60
2018-12-07T19:31:18.587Z,38.80
2018-12-07T19:33:48.637Z,33.90
2018-12-07T19:36:17.650Z,29.07
2018-12-07T19:38:47.171Z,40.23
2018-12-07T19:41:16.130Z,42.63
2018-12-07T19:43:45.369Z,37.63
2018-12-07T19:46:15.457Z,41.00
2018-12-07T19:48:44.565Z,44.07
2018-12-07T19:51:13.645Z,42.47
2018-12-07T19:53:42.718Z,41.10
2018-12-07T19:56:11.699Z,31.10
2018-12-07T19:58:40.663Z,41.10
2018-12-07T20:01:09.745Z,42.77
2018-12-07T20:03:39.068Z,47.93
2018-12-07T20:06:10.009Z,43.07
2018-12-07T20:08:39.156Z,36.13
2018-12-07T20:11:08.118Z,49.20
2018-12-07T20:13:37.108Z,49.93
2018-12-07T20:16:06.094Z,37.00
2018-12-07T20:18:35.199Z,37.97
2018-12-07T20:21:04.261Z,39.67
2018-12-07T20:23:33.166Z,47.53
2018-12-07T20:26:02.094Z,47.47
2018-12-07T20:28:31.219Z,41.87
2018-12-07T20:31:01.105Z,41.50
2018-12-07T20:33:30.269Z,36.80
2018-12-07T20:35:59.576Z,41.07
2018-12-07T20:38:28.536Z,38.43
2018-12-07T20:40:57.721Z,35.97
2018-12-07T20:43:26.771Z,45.73
2018-12-07T20:45:55.973Z,44.37
2018-12-07T20:48:24.904Z,47.53
2018-12-07T20:50:54.193Z,54.93
2018-12-07T20:53:23.205Z,41.20
2018-12-07T20:55:52.504Z,56.87
2018-12-07T20:58:21.687Z,53.77
2018-12-07T21:00:59.059Z,50.93
2018-12-07T21:03:45.648Z,328.53
2018-12-07T21:06:28.370Z,56.87
2018-12-07T21:09:10.009Z,46.87
2018-12-07T21:11:42.106Z,59.60
2018-12-07T21:14:22.990Z,56.53
2018-12-07T21:17:03.097Z,46.37
2018-12-07T21:19:32.385Z,44.23
2018-12-07T21:22:01.408Z,43.07
2018-12-07T21:24:30.780Z,54.30
2018-12-07T21:27:00.001Z,56.67
2018-12-07T21:29:29.195Z,53.77
2018-12-07T21:31:59.101Z,243.50
2018-12-07T21:34:36.500Z,203.67
2018-12-07T21:37:05.696Z,978.27
2018-12-07T21:39:41.707Z,720.43
2018-12-07T21:42:10.681Z,575.80
2018-12-07T21:44:39.693Z,1777.73
2018-12-07T21:47:08.967Z,1377.33
2018-12-07T21:49:47.808Z,1031.30
2018-12-07T21:52:23.998Z,1191.00
2018-12-07T21:54:53.130Z,1317.07
2018-12-07T21:57:22.447Z,1345.60
2018-12-07T21:59:51.775Z,1132.73
2018-12-07T22:02:20.908Z,1400.43
2018-12-07T22:04:50.057Z,904.83
2018-12-07T22:07:19.485Z,1008.70
2018-12-07T22:09:49.061Z,759.43
2018-12-07T22:12:18.015Z,630.83
2018-12-07T22:14:47.067Z,413.13
2018-12-07T22:17:15.957Z,555.83
2018-12-07T22:19:44.844Z,1063.60
2018-12-07T22:22:14.498Z,735.57
2018-12-07T22:24:43.362Z,218.37
2018-12-07T22:27:12.355Z,802.33
2018-12-07T22:29:41.517Z,380.00
2018-12-07T22:32:10.616Z,141.90
2018-12-07T22:34:39.663Z,84.17
2018-12-07T22:37:08.835Z,192.57
2018-12-07T22:39:38.064Z,393.53
2018-12-07T22:42:07.310Z,128.93
2018-12-07T22:44:36.383Z,213.93
2018-12-07T22:47:05.293Z,99.47
2018-12-07T22:49:34.192Z,83.27
2018-12-07T22:52:03.138Z,64.67
2018-12-07T22:54:31.991Z,63.67
2018-12-07T22:57:00.933Z,86.40
2018-12-07T22:59:29.877Z,77.60
2018-12-07T23:01:58.758Z,71.00
2018-12-07T23:04:27.663Z,74.23
2018-12-07T23:06:56.603Z,73.60
2018-12-07T23:09:25.482Z,74.10
2018-12-07T23:11:55.370Z,65.77
2018-12-07T23:14:24.302Z,59.50
2018-12-07T23:16:53.226Z,70.30
2018-12-07T23:19:22.111Z,53.50
2018-12-07T23:21:51.064Z,68.37
2018-12-07T23:24:19.948Z,67.10
2018-12-07T23:26:48.819Z,50.97
2018-12-07T23:29:20.682Z,52.33
2018-12-07T23:31:49.619Z,61.53
2018-12-07T23:34:18.497Z,52.73
2018-12-07T23:36:47.434Z,50.93
2018-12-07T23:39:16.331Z,52.23
2018-12-07T23:41:45.211Z,50.77
2018-12-07T23:44:14.155Z,43.53
2018-12-07T23:46:43.055Z,49.60
2018-12-07T23:49:11.915Z,42.30
2018-12-07T23:51:41.860Z,50.83
2018-12-07T23:54:10.791Z,44.10
2018-12-07T23:56:39.925Z,47.53
2018-12-07T23:59:09.190Z,42.43
